createdAt,value
2019-03-29T00:02:17.080Z,97600.66
2019-03-29T00:04:50.280Z,97605.26
2019-03-29T00:07:22.608Z,97601.82
2019-03-29T00:09:54.777Z,97604.05
2019-03-29T00:12:28.489Z,97597.97
2019-03-29T00:15:01.440Z,97594.20
2019-03-29T00:17:35.552Z,97589.02
2019-03-29T00:20:09.569Z,97586.50
2019-03-29T00:22:45.485Z,97583.00
2019-03-29T00:25:17.628Z,97589.42
2019-03-29T00:27:49.599Z,97584.20
2019-03-29T00:30:22.580Z,97581.33
2019-03-29T00:32:57.904Z,97580.45
2019-03-29T00:35:30.033Z,97576.30
2019-03-29T00:38:03.790Z,97579.58
2019-03-29T00:40:36.232Z,97577.53
2019-03-29T00:43:09.088Z,97576.33
2019-03-29T00:45:43.851Z,97571.99
2019-03-29T00:48:17.695Z,97573.20
2019-03-29T00:50:49.610Z,97574.11
2019-03-29T00:53:22.577Z,97570.78
2019-03-29T00:55:55.198Z,97563.41
2019-03-29T00:58:28.911Z,97567.34
2019-03-29T01:01:02.553Z,97563.51
2019-03-29T01:03:34.732Z,97569.17
2019-03-29T01:06:07.755Z,97567.48
2019-03-29T01:08:40.698Z,97572.76
2019-03-29T01:11:16.415Z,97573.48
2019-03-29T01:13:50.958Z,97569.59
2019-03-29T01:16:25.224Z,97570.23
2019-03-29T01:18:58.749Z,97572.00
2019-03-29T01:21:33.385Z,97566.95
2019-03-29T01:24:07.856Z,97565.69
2019-03-29T01:26:41.041Z,97561.95
2019-03-29T01:29:13.652Z,97557.54
2019-03-29T01:31:46.783Z,97554.33
2019-03-29T01:34:18.900Z,97556.59
2019-03-29T01:36:53.209Z,97555.47
2019-03-29T01:39:25.697Z,97555.63
2019-03-29T01:42:00.391Z,97555.96
2019-03-29T01:44:35.159Z,97557.80
2019-03-29T01:47:09.822Z,97553.63
2019-03-29T01:49:44.687Z,97549.47
2019-03-29T01:52:17.709Z,97542.77
2019-03-29T01:54:50.662Z,97548.91
2019-03-29T01:57:24.637Z,97550.86
2019-03-29T01:59:58.695Z,97550.58
2019-03-29T02:02:31.826Z,97508.89
2019-03-29T02:05:07.294Z,97551.59
2019-03-29T02:07:44.145Z,97556.22
2019-03-29T02:10:17.989Z,97560.52
2019-03-29T02:12:49.922Z,97556.80
2019-03-29T02:15:21.921Z,97555.88
2019-03-29T02:17:53.859Z,97556.57
2019-03-29T02:20:25.693Z,97554.31
2019-03-29T02:22:57.999Z,97549.54
2019-03-29T02:25:32.953Z,97552.93
2019-03-29T02:28:04.859Z,97551.06
2019-03-29T02:30:38.046Z,97549.25
2019-03-29T02:33:11.204Z,97551.03
2019-03-29T02:35:45.065Z,97550.95
2019-03-29T02:38:17.172Z,97549.74
2019-03-29T02:40:51.000Z,97555.35
2019-03-29T02:43:23.205Z,97553.15
2019-03-29T02:45:57.613Z,97556.20
2019-03-29T02:48:32.699Z,97554.93
2019-03-29T02:51:05.270Z,97555.70
2019-03-29T02:53:38.245Z,97558.39
2019-03-29T02:56:11.180Z,97557.22
2019-03-29T02:58:44.241Z,97559.97
2019-03-29T03:01:17.939Z,97560.55
2019-03-29T03:03:52.130Z,97564.81
2019-03-29T03:06:26.263Z,97563.17
2019-03-29T03:09:12.392Z,97564.94
2019-03-29T03:11:36.771Z,97561.31
2019-03-29T03:14:11.338Z,97557.23
2019-03-29T03:16:44.345Z,97557.50
2019-03-29T03:19:18.397Z,97556.33
2019-03-29T03:21:50.469Z,97557.30
2019-03-29T03:24:22.292Z,97556.96
2019-03-29T03:26:57.073Z,97552.91
2019-03-29T03:29:31.443Z,97557.73
2019-03-29T03:32:05.210Z,97559.55
2019-03-29T03:34:37.241Z,97561.49
2019-03-29T03:37:11.340Z,97561.26
2019-03-29T03:39:44.329Z,97566.02
2019-03-29T03:42:17.659Z,97558.06
2019-03-29T03:44:54.042Z,97548.50
2019-03-29T03:47:25.798Z,97557.73
2019-03-29T03:50:00.882Z,97550.22
2019-03-29T03:52:34.277Z,97551.92
2019-03-29T03:55:07.511Z,97553.91
2019-03-29T03:57:40.575Z,97549.64
2019-03-29T04:00:36.427Z,97551.77
2019-03-29T04:03:09.438Z,97551.30
2019-03-29T04:05:41.192Z,97551.63
2019-03-29T04:08:15.090Z,97554.69
2019-03-29T04:11:00.796Z,97557.56
2019-03-29T04:13:35.741Z,97560.19
2019-03-29T04:16:07.564Z,97561.63
2019-03-29T04:18:42.273Z,97560.42
2019-03-29T04:21:18.458Z,97556.33
2019-03-29T04:23:53.357Z,97563.30
2019-03-29T04:26:25.529Z,97560.78
2019-03-29T04:29:04.919Z,97560.85
2019-03-29T04:31:36.282Z,97558.78
2019-03-29T04:34:09.464Z,97565.95
2019-03-29T04:36:41.285Z,97567.44
2019-03-29T04:39:14.249Z,97565.32
2019-03-29T04:41:47.865Z,97569.48
2019-03-29T04:44:19.829Z,97577.50
2019-03-29T04:46:54.329Z,97581.52
2019-03-29T04:49:26.151Z,97579.81
2019-03-29T04:51:58.731Z,97582.66
2019-03-29T04:54:31.751Z,97585.01
2019-03-29T04:57:03.886Z,97587.13
2019-03-29T04:59:38.330Z,97593.27
2019-03-29T05:02:14.637Z,97592.55
2019-03-29T05:04:48.465Z,97592.66
2019-03-29T05:07:22.746Z,97590.73
2019-03-29T05:09:55.719Z,97594.13
2019-03-29T05:12:28.725Z,97597.52
2019-03-29T05:15:04.635Z,97595.27
2019-03-29T05:17:37.793Z,97594.14
2019-03-29T05:20:14.774Z,97592.02
2019-03-29T05:22:46.951Z,97598.39
2019-03-29T05:25:21.421Z,97596.47
2019-03-29T05:27:57.778Z,97601.84
2019-03-29T05:30:31.764Z,97604.25
2019-03-29T05:33:05.123Z,97608.25
2019-03-29T05:35:37.986Z,97609.09
2019-03-29T05:38:10.914Z,97610.45
2019-03-29T05:40:45.506Z,97621.33
2019-03-29T05:43:19.180Z,97622.69
2019-03-29T05:45:52.985Z,97616.89
2019-03-29T05:48:25.422Z,97618.66
2019-03-29T05:50:57.206Z,97619.28
2019-03-29T05:53:29.220Z,97620.77
2019-03-29T05:56:01.776Z,97620.86
2019-03-29T05:58:34.945Z,97615.67
2019-03-29T06:01:06.839Z,97623.72
2019-03-29T06:03:40.929Z,97621.80
2019-03-29T06:06:13.926Z,97621.61
2019-03-29T06:08:47.108Z,97621.33
2019-03-29T06:11:20.001Z,97618.69
2019-03-29T06:13:55.246Z,97622.27
2019-03-29T06:16:38.890Z,97617.55
2019-03-29T06:19:05.787Z,97615.05
2019-03-29T06:21:39.655Z,97610.21
2019-03-29T06:24:12.943Z,97613.91
2019-03-29T06:26:48.166Z,97605.77
2019-03-29T06:29:20.678Z,97609.03
2019-03-29T06:31:56.651Z,97603.00
2019-03-29T06:34:30.879Z,97600.11
2019-03-29T06:37:05.650Z,97608.53
2019-03-29T06:39:38.338Z,97612.88
2019-03-29T06:42:13.494Z,97613.59
2019-03-29T06:44:46.357Z,97612.48
2019-03-29T06:47:21.146Z,97612.91
2019-03-29T06:49:53.273Z,97620.47
2019-03-29T06:52:28.581Z,97623.04
2019-03-29T06:55:05.502Z,97626.11
2019-03-29T06:57:39.453Z,97624.84
2019-03-29T07:00:13.622Z,97632.33
2019-03-29T07:02:48.183Z,97626.80
2019-03-29T07:05:20.316Z,97631.89
2019-03-29T07:07:53.237Z,97627.54
2019-03-29T07:10:25.493Z,97632.72
2019-03-29T07:12:59.963Z,97629.86
2019-03-29T07:15:33.127Z,97625.09
2019-03-29T07:18:10.473Z,97626.44
2019-03-29T07:20:45.622Z,97632.09
2019-03-29T07:23:18.407Z,97625.08
2019-03-29T07:25:52.173Z,97620.22
2019-03-29T07:28:25.875Z,97622.27
2019-03-29T07:31:00.632Z,97627.12
2019-03-29T07:33:32.461Z,97632.44
2019-03-29T07:36:06.466Z,97631.83
2019-03-29T07:38:38.825Z,97628.14
2019-03-29T07:41:11.526Z,97628.41
2019-03-29T07:43:44.622Z,97637.46
2019-03-29T07:46:19.471Z,97633.89
2019-03-29T07:48:53.033Z,97633.33
2019-03-29T07:51:25.728Z,97631.64
2019-03-29T07:54:01.282Z,97630.75
2019-03-29T07:56:37.321Z,97636.12
2019-03-29T07:59:11.583Z,97632.86
2019-03-29T08:01:45.503Z,97627.10
2019-03-29T08:04:21.632Z,97625.90
2019-03-29T08:06:53.795Z,97616.14
2019-03-29T08:09:27.191Z,97623.03
2019-03-29T08:11:59.528Z,97618.55
2019-03-29T08:14:50.801Z,97614.70
2019-03-29T08:17:24.111Z,97617.02
2019-03-29T08:20:24.388Z,97627.66
2019-03-29T08:22:32.782Z,97630.29
2019-03-29T08:25:05.675Z,97628.58
2019-03-29T08:27:38.656Z,97623.45
2019-03-29T08:30:10.685Z,97624.29
2019-03-29T08:32:48.071Z,97622.82
2019-03-29T08:35:21.713Z,97622.13
2019-03-29T08:37:54.187Z,97628.26
2019-03-29T08:40:26.653Z,97630.18
2019-03-29T08:43:00.593Z,97629.66
2019-03-29T08:45:32.780Z,97630.28
2019-03-29T08:48:06.990Z,97635.34
2019-03-29T08:50:40.398Z,97641.72
2019-03-29T08:53:14.789Z,97641.02
2019-03-29T08:55:46.845Z,97640.60
2019-03-29T08:58:20.533Z,97639.20
2019-03-29T09:00:52.638Z,97642.33
2019-03-29T09:03:26.198Z,97641.70
2019-03-29T09:05:59.887Z,97644.48
2019-03-29T09:08:32.817Z,97638.44
2019-03-29T09:11:07.562Z,97636.72
2019-03-29T09:13:40.856Z,97633.26
2019-03-29T09:16:14.753Z,97642.67
2019-03-29T09:18:46.834Z,97640.00
2019-03-29T09:21:20.812Z,97631.36
2019-03-29T09:23:53.846Z,97627.53
2019-03-29T09:26:25.719Z,97626.36
2019-03-29T09:29:00.585Z,97625.34
2019-03-29T09:31:34.371Z,97621.86
2019-03-29T09:34:08.916Z,97618.17
2019-03-29T09:36:40.903Z,97620.00
2019-03-29T09:39:14.077Z,97605.23
2019-03-29T09:41:47.936Z,97606.66
2019-03-29T09:44:20.087Z,97604.22
2019-03-29T09:46:51.897Z,97597.95
2019-03-29T09:49:25.920Z,97600.20
2019-03-29T09:51:59.409Z,97600.34
2019-03-29T09:54:32.048Z,97597.72
2019-03-29T09:57:04.973Z,97594.20
2019-03-29T09:59:37.969Z,97595.08
2019-03-29T10:02:12.014Z,97592.31
2019-03-29T10:04:44.166Z,97589.75
2019-03-29T10:07:18.121Z,97591.72
2019-03-29T10:09:51.004Z,97592.23
2019-03-29T10:12:23.164Z,97585.60
2019-03-29T10:14:56.178Z,97582.60
2019-03-29T10:17:29.228Z,97584.72
2019-03-29T10:20:03.156Z,97581.48
2019-03-29T10:22:35.997Z,97577.33
2019-03-29T10:25:19.342Z,97576.80
2019-03-29T10:27:46.795Z,97574.69
2019-03-29T10:30:42.105Z,97577.92
2019-03-29T10:36:49.515Z,97582.13
2019-03-29T10:39:26.418Z,97579.34
2019-03-29T10:41:59.110Z,97569.27
2019-03-29T10:44:32.325Z,97560.92
2019-03-29T10:47:04.084Z,97549.13
2019-03-29T10:49:40.020Z,97549.22
2019-03-29T10:52:15.206Z,97549.08
2019-03-29T10:54:50.058Z,97547.30
2019-03-29T10:57:24.579Z,97551.45
2019-03-29T10:59:58.321Z,97539.95
2019-03-29T11:02:33.772Z,97539.47
2019-03-29T11:05:06.403Z,97534.08
2019-03-29T11:07:38.694Z,97528.20
2019-03-29T11:10:19.914Z,97526.30
2019-03-29T11:16:17.077Z,97527.80
2019-03-29T11:18:50.309Z,97527.98
2019-03-29T11:21:22.098Z,97519.38
2019-03-29T11:23:54.256Z,97524.00
2019-03-29T11:29:50.253Z,97514.86
2019-03-29T11:32:23.460Z,97515.41
2019-03-29T11:34:56.413Z,97508.44
2019-03-29T11:37:31.220Z,97507.24
2019-03-29T11:40:06.092Z,97506.91
2019-03-29T11:42:38.574Z,97503.47
2019-03-29T11:45:11.744Z,97501.26
2019-03-29T11:47:46.556Z,97499.87
2019-03-29T11:50:20.403Z,97501.56
2019-03-29T11:52:55.323Z,97493.91
2019-03-29T11:55:30.598Z,97495.48
2019-03-29T11:58:03.644Z,97496.19
2019-03-29T12:00:37.804Z,97486.22
2019-03-29T12:03:13.071Z,97473.29
2019-03-29T12:05:46.967Z,97471.70
2019-03-29T12:08:21.689Z,97472.48
2019-03-29T12:10:54.112Z,97469.39
2019-03-29T12:13:40.015Z,97463.08
2019-03-29T12:16:03.539Z,97460.94
2019-03-29T12:18:35.754Z,97458.05
2019-03-29T12:21:10.319Z,97456.95
2019-03-29T12:23:44.509Z,97447.48
2019-03-29T12:26:17.773Z,97446.84
2019-03-29T12:28:51.583Z,97442.63
2019-03-29T12:31:25.429Z,97436.55
2019-03-29T12:33:59.742Z,97434.09
2019-03-29T12:36:33.002Z,97424.38
2019-03-29T12:39:08.015Z,97425.84
2019-03-29T12:41:42.656Z,97415.38
2019-03-29T12:44:16.613Z,97406.10
2019-03-29T12:46:50.882Z,97407.54
2019-03-29T12:49:23.653Z,97403.19
2019-03-29T12:51:58.423Z,97386.05
2019-03-29T12:54:32.947Z,97391.77
2019-03-29T12:57:06.838Z,97387.52
2019-03-29T12:59:38.910Z,97386.41
2019-03-29T13:02:14.359Z,97388.45
2019-03-29T13:04:48.061Z,97387.13
2019-03-29T13:07:20.778Z,97376.75
2019-03-29T13:09:53.764Z,97376.03
2019-03-29T13:12:26.436Z,97365.47
2019-03-29T13:15:00.489Z,97364.28
2019-03-29T13:17:32.879Z,97363.23
2019-03-29T13:20:06.342Z,97363.99
2019-03-29T13:22:38.331Z,97360.77
2019-03-29T13:25:12.213Z,97352.88
2019-03-29T13:27:45.379Z,97341.17
2019-03-29T13:30:20.741Z,97343.77
2019-03-29T13:32:55.719Z,97342.66
2019-03-29T13:35:31.524Z,97331.69
2019-03-29T13:38:07.526Z,97330.55
2019-03-29T13:40:41.868Z,97320.09
2019-03-29T13:43:15.196Z,97323.23
2019-03-29T13:45:48.297Z,97313.84
2019-03-29T13:48:23.012Z,97311.34
2019-03-29T13:50:59.440Z,97308.80
2019-03-29T13:53:31.534Z,97305.17
2019-03-29T13:56:07.557Z,97301.17
2019-03-29T13:58:40.826Z,97298.00
2019-03-29T14:01:14.461Z,97294.80
2019-03-29T14:03:47.255Z,97287.20
2019-03-29T14:06:21.204Z,97282.84
2019-03-29T14:08:53.202Z,97280.24
2019-03-29T14:11:25.045Z,97275.39
2019-03-29T14:13:59.014Z,97279.66
2019-03-29T14:16:33.049Z,97273.50
2019-03-29T14:19:06.367Z,97274.44
2019-03-29T14:21:39.344Z,97283.00
2019-03-29T14:24:15.675Z,97274.20
2019-03-29T14:26:47.763Z,97281.61
2019-03-29T14:29:21.974Z,97266.72
2019-03-29T14:31:54.429Z,97268.52
2019-03-29T14:34:30.178Z,97267.45
2019-03-29T14:37:03.135Z,97259.17
2019-03-29T14:39:37.706Z,97258.45
2019-03-29T14:42:14.290Z,97266.27
2019-03-29T14:44:52.743Z,97267.27
2019-03-29T14:47:38.119Z,97267.69
2019-03-29T14:50:03.211Z,97262.95
2019-03-29T14:52:36.440Z,97254.60
2019-03-29T14:55:10.359Z,97250.84
2019-03-29T14:57:46.871Z,97247.97
2019-03-29T15:00:43.104Z,97254.56
2019-03-29T15:03:23.358Z,97242.58
2019-03-29T15:06:01.496Z,97234.39
2019-03-29T15:08:34.051Z,97231.56
2019-03-29T15:11:21.241Z,97234.48
2019-03-29T15:13:45.292Z,97224.86
2019-03-29T15:16:20.574Z,97232.52
2019-03-29T15:18:54.438Z,97229.20
2019-03-29T15:21:26.334Z,97236.61
2019-03-29T15:24:01.135Z,97237.70
2019-03-29T15:26:35.414Z,97226.13
2019-03-29T15:29:08.266Z,97223.12
2019-03-29T15:31:41.490Z,97221.42
2019-03-29T15:34:16.022Z,97229.49
2019-03-29T15:36:47.802Z,97222.82
2019-03-29T15:39:20.521Z,97221.67
2019-03-29T15:41:53.479Z,97220.02
2019-03-29T15:44:25.564Z,97208.23
2019-03-29T15:46:57.558Z,97206.02
2019-03-29T15:49:31.454Z,97208.56
2019-03-29T15:52:04.572Z,97202.72
2019-03-29T15:54:38.686Z,97204.48
2019-03-29T15:57:11.764Z,97199.91
2019-03-29T15:59:44.669Z,97198.74
2019-03-29T16:02:17.528Z,97204.34
2019-03-29T16:04:50.578Z,97205.31
2019-03-29T16:07:23.722Z,97204.24
2019-03-29T16:09:56.850Z,97208.23
2019-03-29T16:12:30.599Z,97210.69
2019-03-29T16:15:02.690Z,97206.50
2019-03-29T16:17:35.625Z,97207.57
2019-03-29T16:20:11.109Z,97204.45
2019-03-29T16:22:47.252Z,97206.70
2019-03-29T16:25:20.598Z,97203.80
2019-03-29T16:27:54.390Z,97206.37
2019-03-29T16:30:26.477Z,97208.64
2019-03-29T16:33:01.361Z,97201.45
2019-03-29T16:35:37.573Z,97210.58
2019-03-29T16:38:13.422Z,97206.73
2019-03-29T16:40:47.849Z,97199.64
2019-03-29T16:43:20.854Z,97204.88
2019-03-29T16:45:53.888Z,97202.70
2019-03-29T16:48:27.150Z,97199.91
2019-03-29T16:51:00.347Z,97202.77
2019-03-29T16:53:33.258Z,97203.10
2019-03-29T16:56:05.816Z,97206.13
2019-03-29T16:58:38.802Z,97208.55
2019-03-29T17:01:11.814Z,97209.66
2019-03-29T17:03:45.405Z,97205.28
2019-03-29T17:06:18.641Z,97202.82
2019-03-29T17:08:50.835Z,97201.00
2019-03-29T17:11:23.760Z,97207.78
2019-03-29T17:13:58.075Z,97210.55
2019-03-29T17:16:33.146Z,97209.80
2019-03-29T17:19:04.907Z,97211.09
2019-03-29T17:21:36.996Z,97214.43
2019-03-29T17:24:09.920Z,97206.36
2019-03-29T17:26:42.922Z,97205.48
2019-03-29T17:29:16.048Z,97214.16
2019-03-29T17:31:48.181Z,97213.66
2019-03-29T17:34:21.894Z,97217.31
2019-03-29T17:36:54.932Z,97224.61
2019-03-29T17:39:26.751Z,97226.18
2019-03-29T17:42:00.027Z,97229.47
2019-03-29T17:44:33.161Z,97228.61
2019-03-29T17:47:06.023Z,97232.50
2019-03-29T17:49:39.207Z,97231.25
2019-03-29T17:52:12.297Z,97241.97
2019-03-29T17:54:45.057Z,97238.77
2019-03-29T17:57:18.158Z,97238.11
2019-03-29T17:59:52.514Z,97237.81
2019-03-29T18:02:27.209Z,97247.61
2019-03-29T18:05:00.050Z,97245.83
2019-03-29T18:07:33.124Z,97248.60
2019-03-29T18:10:06.724Z,97250.14
2019-03-29T18:12:40.112Z,97249.31
2019-03-29T18:15:14.013Z,97242.36
2019-03-29T18:17:48.369Z,97242.64
2019-03-29T18:20:21.029Z,97239.87
2019-03-29T18:22:54.190Z,97243.23
2019-03-29T18:25:26.649Z,97239.27
2019-03-29T18:28:01.459Z,97234.72
2019-03-29T18:30:44.258Z,97231.75
2019-03-29T18:33:18.297Z,97232.53
2019-03-29T18:35:52.324Z,97232.61
2019-03-29T18:38:24.997Z,97236.78
2019-03-29T18:40:57.690Z,97238.23
2019-03-29T18:43:30.254Z,97231.14
2019-03-29T18:46:05.023Z,97238.75
2019-03-29T18:48:39.258Z,97237.80
2019-03-29T18:51:11.365Z,97241.75
2019-03-29T18:53:43.708Z,97245.48
2019-03-29T18:56:18.689Z,97247.28
2019-03-29T18:58:52.367Z,97242.79
2019-03-29T19:01:26.044Z,97242.59
2019-03-29T19:04:00.787Z,97238.93
2019-03-29T19:06:34.381Z,97236.45
2019-03-29T19:09:08.062Z,97231.81
2019-03-29T19:11:42.526Z,97238.81
2019-03-29T19:14:15.829Z,97235.06
2019-03-29T19:16:58.919Z,97235.52
2019-03-29T19:19:23.652Z,97229.40
2019-03-29T19:21:57.595Z,97228.26
2019-03-29T19:24:30.545Z,97226.04
2019-03-29T19:27:04.468Z,97225.81
2019-03-29T19:29:37.771Z,97235.34
2019-03-29T19:32:09.606Z,97233.34
2019-03-29T19:34:43.428Z,97233.20
2019-03-29T19:37:15.521Z,97230.81
2019-03-29T19:39:48.623Z,97237.53
2019-03-29T19:42:21.499Z,97239.94
2019-03-29T19:44:54.802Z,97240.65
2019-03-29T19:47:26.748Z,97235.69
2019-03-29T19:50:02.267Z,97227.52
2019-03-29T19:52:35.827Z,97228.84
2019-03-29T19:55:11.570Z,97229.50
2019-03-29T19:57:47.427Z,97233.49
2019-03-29T20:00:35.589Z,97225.11
2019-03-29T20:03:09.896Z,97225.52
2019-03-29T20:05:42.614Z,97229.44
2019-03-29T20:08:15.706Z,97232.78
2019-03-29T20:10:48.808Z,97224.25
2019-03-29T20:13:21.750Z,97224.92
2019-03-29T20:15:54.749Z,97219.51
2019-03-29T20:18:27.116Z,97223.18
2019-03-29T20:21:00.674Z,97222.14
2019-03-29T20:23:33.853Z,97231.39
2019-03-29T20:26:08.488Z,97229.53
2019-03-29T20:28:43.650Z,97229.34
2019-03-29T20:31:15.856Z,97231.14
2019-03-29T20:33:48.869Z,97225.04
2019-03-29T20:36:23.038Z,97223.91
2019-03-29T20:38:55.028Z,97217.67
2019-03-29T20:41:27.506Z,97218.50
2019-03-29T20:43:59.762Z,97219.17
2019-03-29T20:46:33.384Z,97219.22
2019-03-29T20:49:07.014Z,97216.99
2019-03-29T20:51:41.171Z,97216.74
2019-03-29T20:54:14.898Z,97216.38
2019-03-29T20:56:48.299Z,97213.64
2019-03-29T20:59:20.937Z,97209.30
2019-03-29T21:01:54.797Z,97211.45
2019-03-29T21:04:28.561Z,97210.95
2019-03-29T21:07:02.053Z,97206.34
2019-03-29T21:09:36.006Z,97202.22
2019-03-29T21:12:09.075Z,97201.99
2019-03-29T21:14:41.942Z,97194.33
2019-03-29T21:17:15.036Z,97193.34
2019-03-29T21:19:48.285Z,97188.17
2019-03-29T21:22:21.027Z,97185.23
2019-03-29T21:24:55.554Z,97189.40
2019-03-29T21:27:27.506Z,97184.23
2019-03-29T21:30:00.302Z,97188.96
2019-03-29T21:32:33.076Z,97190.95
2019-03-29T21:35:07.466Z,97191.77
2019-03-29T21:37:46.014Z,97194.78
2019-03-29T21:40:17.985Z,97190.34
2019-03-29T21:42:51.334Z,97187.80
2019-03-29T21:45:28.924Z,97194.85
2019-03-29T21:48:08.882Z,97193.72
2019-03-29T21:50:36.110Z,97184.48
2019-03-29T21:53:10.071Z,97179.86
2019-03-29T21:55:42.174Z,97175.95
2019-03-29T21:58:15.149Z,97175.12
2019-03-29T22:00:48.294Z,97178.17
2019-03-29T22:03:20.432Z,97181.63
2019-03-29T22:05:54.233Z,97177.34
2019-03-29T22:08:26.867Z,97178.22
2019-03-29T22:11:00.249Z,97178.73
2019-03-29T22:13:33.190Z,97176.95
2019-03-29T22:16:06.180Z,97168.55
2019-03-29T22:18:39.194Z,97165.77
2019-03-29T22:21:12.404Z,97168.09
2019-03-29T22:23:45.493Z,97163.24
2019-03-29T22:26:20.290Z,97162.11
2019-03-29T22:28:53.399Z,97162.11
2019-03-29T22:31:25.276Z,97161.60
2019-03-29T22:33:58.503Z,97163.15
2019-03-29T22:36:33.410Z,97151.51
2019-03-29T22:39:08.218Z,97152.38
2019-03-29T22:41:42.318Z,97150.36
2019-03-29T22:44:15.347Z,97149.98
2019-03-29T22:46:48.426Z,97148.14
2019-03-29T22:49:21.408Z,97145.04
2019-03-29T22:51:54.407Z,97137.41
2019-03-29T22:54:37.831Z,97139.25
2019-03-29T22:57:12.501Z,97142.50
2019-03-29T22:59:45.459Z,97141.59
2019-03-29T23:02:20.204Z,97133.14
2019-03-29T23:04:56.143Z,97134.28
2019-03-29T23:07:29.511Z,97135.68
2019-03-29T23:10:03.875Z,97129.77
2019-03-29T23:12:36.442Z,97128.70
2019-03-29T23:15:10.149Z,97124.11
2019-03-29T23:17:44.322Z,97122.91
2019-03-29T23:20:18.640Z,97121.34
2019-03-29T23:22:51.712Z,97118.27
2019-03-29T23:25:24.913Z,97111.73
2019-03-29T23:27:57.591Z,97104.92
2019-03-29T23:30:30.419Z,97103.55
2019-03-29T23:33:02.692Z,97103.91
2019-03-29T23:35:37.152Z,97102.23
2019-03-29T23:38:09.653Z,97097.63
2019-03-29T23:40:42.470Z,97097.30
2019-03-29T23:43:15.911Z,97095.25
2019-03-29T23:45:48.733Z,97088.40
2019-03-29T23:48:20.496Z,97085.42
2019-03-29T23:50:54.649Z,97087.97
2019-03-29T23:53:27.264Z,97081.31
2019-03-29T23:56:00.600Z,97091.30
2019-03-29T23:58:34.049Z,97088.52
